createdAt,value
2023-05-03T00:01:19.887Z,72.78
2023-05-03T00:03:51.301Z,72.40
2023-05-03T00:06:22.336Z,72.52
2023-05-03T00:08:52.733Z,72.75
2023-05-03T00:11:23.606Z,72.75
2023-05-03T00:13:53.944Z,72.60
2023-05-03T00:16:24.186Z,72.77
2023-05-03T00:18:54.956Z,72.53
2023-05-03T00:21:25.287Z,72.39
2023-05-03T00:23:55.612Z,72.58
2023-05-03T00:26:26.148Z,72.66
2023-05-03T00:28:56.546Z,72.72
2023-05-03T00:31:26.881Z,72.82
2023-05-03T00:33:57.231Z,72.50
2023-05-03T00:36:27.577Z,72.63
2023-05-03T00:38:57.840Z,72.42
2023-05-03T00:41:28.622Z,72.89
2023-05-03T00:43:58.894Z,72.66
2023-05-03T00:46:29.302Z,72.37
2023-05-03T00:49:00.021Z,72.26
2023-05-03T00:51:30.723Z,72.20
2023-05-03T00:54:00.945Z,72.58
2023-05-03T00:56:37.983Z,72.27
2023-05-03T00:59:18.763Z,72.20
2023-05-03T01:01:54.956Z,71.97
2023-05-03T01:04:26.261Z,72.19
2023-05-03T01:07:02.113Z,71.76
2023-05-03T01:10:07.231Z,71.59
2023-05-03T01:13:06.391Z,71.59
2023-05-03T01:15:59.469Z,71.27
2023-05-03T01:18:37.124Z,71.24
2023-05-03T01:21:10.248Z,71.03
2023-05-03T01:23:55.300Z,71.04
2023-05-03T01:26:27.734Z,71.31
2023-05-03T01:28:59.278Z,70.72
2023-05-03T01:31:31.411Z,70.85
2023-05-03T01:34:20.519Z,70.51
2023-05-03T01:36:53.456Z,70.88
2023-05-03T01:39:31.550Z,70.76
2023-05-03T01:42:04.527Z,71.13
2023-05-03T01:44:36.403Z,71.23
2023-05-03T01:47:06.689Z,71.11
2023-05-03T01:49:37.739Z,70.87
2023-05-03T01:52:08.523Z,70.54
2023-05-03T01:54:38.964Z,70.73
2023-05-03T01:57:09.311Z,70.62
2023-05-03T01:59:40.159Z,70.87
2023-05-03T02:02:10.520Z,70.56
2023-05-03T02:04:41.173Z,70.26
2023-05-03T02:07:11.664Z,70.81
2023-05-03T02:09:42.033Z,70.39
2023-05-03T02:12:13.912Z,70.38
2023-05-03T02:14:44.375Z,69.52
2023-05-03T02:17:15.330Z,69.79
2023-05-03T02:19:46.270Z,69.29
2023-05-03T02:22:16.535Z,68.35
2023-05-03T02:24:46.847Z,69.73
2023-05-03T02:27:18.861Z,68.80
2023-05-03T02:29:49.392Z,69.62
2023-05-03T02:32:19.676Z,68.90
2023-05-03T02:34:51.480Z,68.17
2023-05-03T02:37:24.896Z,68.60
2023-05-03T02:39:55.702Z,68.37
2023-05-03T02:42:26.442Z,68.67
2023-05-03T02:44:57.430Z,67.99
2023-05-03T02:47:28.791Z,68.35
2023-05-03T02:49:59.366Z,68.83
2023-05-03T02:52:30.036Z,68.07
2023-05-03T02:55:00.550Z,67.90
2023-05-03T02:57:30.930Z,68.56
2023-05-03T03:00:03.232Z,68.09
2023-05-03T03:02:33.846Z,68.16
2023-05-03T03:05:04.287Z,66.23
2023-05-03T03:07:35.226Z,67.09
2023-05-03T03:10:06.962Z,66.68
2023-05-03T03:12:39.552Z,67.62
2023-05-03T03:15:14.091Z,66.31
2023-05-03T03:17:45.162Z,66.39
2023-05-03T03:20:16.347Z,66.85
2023-05-03T03:22:49.984Z,66.30
2023-05-03T03:25:20.703Z,65.74
2023-05-03T03:27:51.317Z,66.14
2023-05-03T03:30:21.865Z,65.76
2023-05-03T03:33:02.304Z,65.00
2023-05-03T03:35:40.647Z,64.86
2023-05-03T03:38:11.867Z,65.45
2023-05-03T03:40:50.199Z,65.45
2023-05-03T03:43:20.979Z,65.14
2023-05-03T03:45:52.825Z,64.99
2023-05-03T03:48:23.358Z,64.82
2023-05-03T03:50:54.384Z,64.40
2023-05-03T03:53:29.419Z,64.03
2023-05-03T03:55:59.673Z,64.14
2023-05-03T03:58:30.159Z,64.16
2023-05-03T04:01:00.921Z,64.14
2023-05-03T04:03:32.826Z,63.69
2023-05-03T04:06:03.319Z,63.59
2023-05-03T04:08:33.951Z,64.06
2023-05-03T04:11:05.377Z,63.36
2023-05-03T04:13:38.966Z,63.46
2023-05-03T04:16:10.567Z,63.30
2023-05-03T04:18:41.116Z,63.11
2023-05-03T04:21:12.204Z,63.56
2023-05-03T04:23:43.901Z,63.09
2023-05-03T04:26:30.018Z,63.09
2023-05-03T04:29:09.586Z,62.72
2023-05-03T04:31:42.072Z,62.78
2023-05-03T04:34:13.070Z,62.50
2023-05-03T04:36:44.761Z,62.52
2023-05-03T04:39:16.079Z,62.32
2023-05-03T04:41:48.620Z,62.30
2023-05-03T04:44:19.257Z,62.26
2023-05-03T04:46:52.381Z,62.40
2023-05-03T04:49:22.873Z,62.12
2023-05-03T04:51:54.555Z,62.11
2023-05-03T04:54:26.826Z,61.95
2023-05-03T04:56:58.483Z,61.84
2023-05-03T04:59:29.000Z,62.13
2023-05-03T05:02:00.064Z,62.20
2023-05-03T05:04:30.623Z,62.17
2023-05-03T05:07:01.904Z,62.22
2023-05-03T05:09:34.368Z,61.94
2023-05-03T05:12:06.583Z,61.43
2023-05-03T05:14:41.952Z,61.52
2023-05-03T05:17:12.717Z,61.38
2023-05-03T05:19:45.055Z,61.63
2023-05-03T05:22:15.363Z,61.28
2023-05-03T05:24:51.290Z,61.55
2023-05-03T05:27:23.683Z,61.37
2023-05-03T05:29:56.289Z,61.24
2023-05-03T05:32:26.754Z,61.36
2023-05-03T05:35:00.146Z,61.04
2023-05-03T05:37:31.795Z,61.49
2023-05-03T05:40:06.167Z,61.27
2023-05-03T05:42:42.838Z,61.40
2023-05-03T05:45:13.892Z,61.32
2023-05-03T05:47:46.239Z,61.10
2023-05-03T05:50:18.808Z,61.13
2023-05-03T05:52:58.578Z,60.98
2023-05-03T05:55:32.596Z,60.82
2023-05-03T05:58:04.060Z,60.74
2023-05-03T06:00:43.459Z,60.67
2023-05-03T06:03:15.165Z,60.88
2023-05-03T06:05:46.142Z,60.87
2023-05-03T06:08:16.700Z,60.67
2023-05-03T06:10:46.990Z,60.54
2023-05-03T06:13:17.601Z,60.58
2023-05-03T06:15:49.528Z,60.46
2023-05-03T06:18:20.786Z,60.61
2023-05-03T06:20:54.191Z,60.66
2023-05-03T06:23:25.256Z,60.45
2023-05-03T06:25:55.824Z,60.17
2023-05-03T06:28:27.392Z,60.10
2023-05-03T06:30:59.127Z,60.07
2023-05-03T06:33:31.641Z,60.14
2023-05-03T06:36:02.162Z,60.29
2023-05-03T06:38:32.799Z,60.28
2023-05-03T06:41:03.430Z,59.84
2023-05-03T06:43:33.966Z,59.92
2023-05-03T06:46:06.581Z,60.21
2023-05-03T06:48:36.864Z,60.19
2023-05-03T06:51:08.072Z,60.15
2023-05-03T06:53:40.374Z,60.01
2023-05-03T06:56:10.950Z,59.92
2023-05-03T06:58:41.344Z,60.08
2023-05-03T07:01:11.841Z,59.86
2023-05-03T07:03:42.350Z,60.15
2023-05-03T07:06:13.602Z,59.77
2023-05-03T07:08:43.940Z,59.57
2023-05-03T07:11:14.319Z,59.69
2023-05-03T07:13:44.421Z,59.79
2023-05-03T07:16:14.664Z,59.82
2023-05-03T07:18:44.854Z,59.62
2023-05-03T07:21:15.924Z,59.63
2023-05-03T07:23:47.048Z,59.46
2023-05-03T07:26:17.454Z,59.34
2023-05-03T07:28:48.347Z,59.08
2023-05-03T07:31:19.795Z,59.13
2023-05-03T07:33:50.617Z,59.18
2023-05-03T07:36:21.134Z,58.89
2023-05-03T07:38:51.649Z,58.85
2023-05-03T07:41:21.964Z,58.82
2023-05-03T07:43:52.586Z,58.74
2023-05-03T07:46:23.156Z,58.77
2023-05-03T07:48:53.686Z,58.80
2023-05-03T07:51:23.978Z,58.52
2023-05-03T07:53:54.634Z,58.47
2023-05-03T07:56:26.285Z,58.65
2023-05-03T07:59:07.524Z,58.31
2023-05-03T08:01:39.278Z,58.31
2023-05-03T08:04:10.424Z,58.36
2023-05-03T08:06:41.271Z,58.32
2023-05-03T08:09:11.846Z,58.49
2023-05-03T08:11:43.934Z,58.19
2023-05-03T08:14:16.533Z,58.17
2023-05-03T08:16:46.907Z,58.07
2023-05-03T08:19:17.463Z,57.99
2023-05-03T08:21:49.379Z,58.02
2023-05-03T08:24:19.666Z,58.18
2023-05-03T08:26:50.867Z,58.29
2023-05-03T08:29:21.110Z,58.52
2023-05-03T08:31:51.246Z,58.85
2023-05-03T08:34:21.735Z,58.96
2023-05-03T08:36:52.050Z,59.38
2023-05-03T08:39:22.427Z,59.28
2023-05-03T08:41:53.434Z,59.97
2023-05-03T08:44:25.786Z,59.41
2023-05-03T08:46:56.148Z,59.64
2023-05-03T08:49:27.071Z,59.96
2023-05-03T08:52:00.062Z,60.24
2023-05-03T08:54:30.787Z,60.71
2023-05-03T08:57:01.256Z,60.70
2023-05-03T08:59:32.043Z,60.54
2023-05-03T09:02:02.723Z,60.46
2023-05-03T09:04:39.237Z,60.50
2023-05-03T09:07:14.439Z,60.61
2023-05-03T09:09:47.261Z,60.51
2023-05-03T09:12:39.144Z,60.65
2023-05-03T09:15:10.001Z,60.68
2023-05-03T09:17:40.275Z,60.92
2023-05-03T09:20:11.392Z,60.85
2023-05-03T09:22:57.901Z,60.73
2023-05-03T09:25:42.502Z,61.07
2023-05-03T09:28:13.048Z,61.09
2023-05-03T09:30:43.479Z,61.17
2023-05-03T09:33:14.156Z,61.04
2023-05-03T09:36:08.079Z,60.84
2023-05-03T09:38:42.001Z,61.04
2023-05-03T09:41:13.264Z,60.73
2023-05-03T09:43:54.864Z,60.64
2023-05-03T09:46:31.725Z,60.58
2023-05-03T09:49:12.057Z,60.50
2023-05-03T09:51:44.103Z,60.46
2023-05-03T09:54:15.199Z,60.39
2023-05-03T09:56:47.139Z,60.56
2023-05-03T09:59:17.498Z,60.54
2023-05-03T10:01:48.269Z,60.59
2023-05-03T10:04:23.255Z,60.61
2023-05-03T10:06:56.404Z,60.54
2023-05-03T10:09:50.274Z,60.64
2023-05-03T10:12:21.800Z,60.85
2023-05-03T10:14:55.403Z,60.86
2023-05-03T10:20:26.263Z,60.75
2023-05-03T10:23:08.955Z,60.82
2023-05-03T10:25:40.860Z,60.75
2023-05-03T10:28:13.695Z,60.79
2023-05-03T10:30:44.130Z,60.83
2023-05-03T10:33:17.507Z,60.56
2023-05-03T10:35:56.892Z,60.84
2023-05-03T10:38:28.832Z,60.90
2023-05-03T10:40:59.840Z,60.80
2023-05-03T10:43:33.097Z,60.81
2023-05-03T10:46:21.248Z,60.64
2023-05-03T10:49:21.837Z,60.86
2023-05-03T10:51:52.787Z,60.95
2023-05-03T10:54:23.062Z,60.88
2023-05-03T10:56:55.312Z,61.09
2023-05-03T10:59:27.269Z,61.01
2023-05-03T11:01:59.136Z,61.15
2023-05-03T11:04:42.441Z,60.79
2023-05-03T11:07:12.745Z,60.32
2023-05-03T11:09:43.038Z,60.61
2023-05-03T11:12:13.330Z,60.46
2023-05-03T11:14:45.800Z,60.66
2023-05-03T11:17:16.339Z,60.41
2023-05-03T11:19:47.478Z,60.19
2023-05-03T11:22:17.446Z,60.28
2023-05-03T11:24:47.792Z,60.00
2023-05-03T11:27:25.993Z,59.82
2023-05-03T11:30:00.808Z,59.96
2023-05-03T11:32:36.524Z,60.24
2023-05-03T11:35:08.614Z,60.04
2023-05-03T11:37:39.050Z,60.12
2023-05-03T11:40:22.086Z,60.03
2023-05-03T11:43:01.278Z,60.21
2023-05-03T11:45:43.272Z,60.31
2023-05-03T11:48:15.533Z,60.08
2023-05-03T11:50:56.837Z,60.04
2023-05-03T11:53:27.341Z,60.00
2023-05-03T11:55:58.371Z,60.18
2023-05-03T11:58:29.556Z,59.93
2023-05-03T12:01:00.011Z,59.74
2023-05-03T12:03:33.570Z,59.69
2023-05-03T12:06:04.801Z,59.83
2023-05-03T12:08:38.694Z,59.82
2023-05-03T12:11:13.645Z,60.05
2023-05-03T12:13:45.001Z,59.99
2023-05-03T12:16:18.565Z,60.24
2023-05-03T12:18:55.780Z,60.19
2023-05-03T12:21:31.893Z,60.01
2023-05-03T12:24:04.906Z,59.96
2023-05-03T12:26:37.877Z,60.29
2023-05-03T12:29:10.062Z,60.40
2023-05-03T12:31:44.097Z,60.46
2023-05-03T12:34:32.694Z,60.42
2023-05-03T12:37:06.505Z,60.40
2023-05-03T12:39:39.644Z,60.53
2023-05-03T12:42:12.402Z,60.64
2023-05-03T12:44:46.922Z,60.69
2023-05-03T12:47:28.013Z,60.86
2023-05-03T12:49:59.972Z,60.75
2023-05-03T13:51:16.744Z,61.91
2023-05-03T13:53:47.288Z,61.59
2023-05-03T13:56:18.438Z,61.31
2023-05-03T13:58:48.828Z,61.08
2023-05-03T14:01:20.290Z,61.11
2023-05-03T14:03:50.845Z,61.44
2023-05-03T14:06:24.188Z,61.18
2023-05-03T14:08:56.984Z,61.20
2023-05-03T14:13:58.669Z,61.44
2023-05-03T14:19:03.338Z,61.58
2023-05-03T14:21:34.216Z,61.49
2023-05-03T14:24:04.616Z,61.80
2023-05-03T14:26:36.441Z,61.48
2023-05-03T14:29:08.115Z,62.20
2023-05-03T14:31:38.854Z,62.08
2023-05-03T14:34:09.284Z,61.97
2023-05-03T14:36:41.927Z,62.18
2023-05-03T14:39:13.035Z,62.20
2023-05-03T14:41:47.825Z,62.42
2023-05-03T14:44:18.055Z,62.45
2023-05-03T14:46:49.273Z,62.48
2023-05-03T14:49:20.055Z,62.42
2023-05-03T14:51:55.041Z,62.62
2023-05-03T14:54:25.653Z,62.65
2023-05-03T14:56:56.092Z,62.63
2023-05-03T14:59:26.343Z,62.90
2023-05-03T15:01:57.074Z,62.93
2023-05-03T15:04:28.114Z,63.16
2023-05-03T15:07:03.276Z,62.96
2023-05-03T15:09:34.206Z,62.80
2023-05-03T15:12:06.276Z,62.49
2023-05-03T15:14:37.811Z,62.95
2023-05-03T15:17:08.283Z,62.62
2023-05-03T15:19:38.674Z,62.86
2023-05-03T15:22:09.110Z,63.13
2023-05-03T15:24:39.208Z,63.01
2023-05-03T15:27:10.145Z,63.48
2023-05-03T15:29:40.377Z,63.31
2023-05-03T15:32:11.172Z,63.47
2023-05-03T15:34:41.950Z,63.41
2023-05-03T15:37:14.671Z,63.40
2023-05-03T15:39:45.047Z,64.12
2023-05-03T15:42:15.438Z,63.88
2023-05-03T15:44:49.206Z,63.91
2023-05-03T15:47:19.632Z,63.95
2023-05-03T15:49:49.813Z,63.97
2023-05-03T15:52:20.160Z,64.05
2023-05-03T15:54:50.553Z,64.03
2023-05-03T15:57:21.031Z,64.27
2023-05-03T15:59:52.016Z,64.24
2023-05-03T16:02:22.298Z,64.44
2023-05-03T16:04:53.035Z,64.88
2023-05-03T16:07:23.490Z,64.96
2023-05-03T16:09:54.213Z,64.96
2023-05-03T16:12:24.488Z,65.16
2023-05-03T16:14:54.904Z,65.49
2023-05-03T16:17:25.603Z,65.52
2023-05-03T16:19:55.923Z,66.06
2023-05-03T16:22:26.235Z,65.71
2023-05-03T16:24:56.672Z,65.75
2023-05-03T16:27:26.774Z,66.04
2023-05-03T16:29:57.321Z,66.15
2023-05-03T16:32:28.882Z,66.15
2023-05-03T16:34:59.409Z,66.06
2023-05-03T16:37:29.828Z,65.99
2023-05-03T16:40:00.301Z,66.35
2023-05-03T16:42:30.534Z,66.26
2023-05-03T16:45:00.851Z,66.17
2023-05-03T16:47:31.149Z,66.09
2023-05-03T16:50:01.456Z,66.16
2023-05-03T16:52:31.729Z,66.11
2023-05-03T16:55:01.799Z,66.22
2023-05-03T16:57:32.150Z,66.22
2023-05-03T17:00:05.687Z,66.26
2023-05-03T17:02:36.396Z,66.20
2023-05-03T17:05:07.792Z,66.35
2023-05-03T17:07:38.840Z,66.53
2023-05-03T17:10:09.733Z,66.45
2023-05-03T17:12:40.402Z,66.71
2023-05-03T17:15:11.289Z,66.59
2023-05-03T17:17:41.912Z,66.87
2023-05-03T17:20:13.317Z,66.81
2023-05-03T17:22:43.793Z,66.76
2023-05-03T17:25:14.154Z,67.00
2023-05-03T17:27:46.238Z,66.98
2023-05-03T17:30:18.773Z,66.72
2023-05-03T17:32:50.053Z,67.01
2023-05-03T17:35:20.952Z,67.31
2023-05-03T17:37:51.351Z,66.93
2023-05-03T17:40:21.804Z,67.35
2023-05-03T17:42:52.189Z,67.32
2023-05-03T17:45:23.601Z,67.39
2023-05-03T17:47:54.063Z,67.57
2023-05-03T17:50:24.562Z,67.71
2023-05-03T17:52:54.903Z,67.62
2023-05-03T17:55:25.207Z,67.74
2023-05-03T17:57:55.585Z,67.66
2023-05-03T18:00:27.879Z,67.99
2023-05-03T18:02:58.773Z,67.86
2023-05-03T18:05:29.713Z,67.73
2023-05-03T18:08:00.062Z,67.80
2023-05-03T18:10:30.453Z,67.82
2023-05-03T18:13:00.852Z,67.91
2023-05-03T18:15:31.415Z,67.95
2023-05-03T18:18:01.671Z,68.01
2023-05-03T18:20:31.928Z,67.82
2023-05-03T18:23:02.231Z,68.05
2023-05-03T18:25:32.771Z,67.77
2023-05-03T18:28:04.654Z,67.95
2023-05-03T18:30:35.098Z,68.12
2023-05-03T18:33:05.338Z,68.04
2023-05-03T18:35:35.897Z,68.19
2023-05-03T18:38:06.257Z,68.07
2023-05-03T18:40:36.420Z,68.08
2023-05-03T18:43:06.762Z,68.02
2023-05-03T18:45:41.413Z,68.30
2023-05-03T18:48:11.924Z,68.30
2023-05-03T18:50:45.184Z,68.41
2023-05-03T18:53:16.432Z,68.14
2023-05-03T18:55:46.907Z,68.17
2023-05-03T18:58:18.044Z,68.06
2023-05-03T19:00:48.410Z,68.23
2023-05-03T19:03:18.775Z,68.03
2023-05-03T19:05:49.389Z,68.33
2023-05-03T19:08:19.676Z,68.32
2023-05-03T19:10:49.930Z,68.43
2023-05-03T19:13:20.452Z,68.31
2023-05-03T19:15:51.057Z,68.23
2023-05-03T19:18:21.597Z,68.08
2023-05-03T19:20:53.514Z,67.93
2023-05-03T19:23:23.876Z,68.09
2023-05-03T19:25:54.831Z,68.26
2023-05-03T19:28:25.338Z,68.32
2023-05-03T19:30:55.894Z,68.33
2023-05-03T19:33:26.420Z,68.31
2023-05-03T19:35:57.426Z,68.33
2023-05-03T19:38:27.864Z,68.32
2023-05-03T19:41:02.109Z,68.27
2023-05-03T19:43:33.757Z,68.46
2023-05-03T19:46:05.396Z,68.27
2023-05-03T19:48:36.682Z,68.29
2023-05-03T19:51:08.627Z,68.35
2023-05-03T19:53:40.136Z,68.29
2023-05-03T19:56:12.027Z,68.35
2023-05-03T19:58:42.534Z,68.14
2023-05-03T20:01:13.257Z,68.29
2023-05-03T20:03:44.869Z,68.19
2023-05-03T20:06:16.241Z,68.09
2023-05-03T20:08:46.598Z,68.49
2023-05-03T20:11:16.866Z,68.25
2023-05-03T20:13:46.893Z,68.31
2023-05-03T20:16:19.318Z,68.50
2023-05-03T20:18:51.367Z,68.28
2023-05-03T20:21:21.962Z,68.12
2023-05-03T20:23:54.329Z,68.39
2023-05-03T20:26:24.806Z,68.41
2023-05-03T20:28:55.179Z,68.43
2023-05-03T20:31:25.605Z,68.36
2023-05-03T20:33:55.913Z,68.32
2023-05-03T20:36:26.376Z,68.17
2023-05-03T20:38:58.372Z,68.42
2023-05-03T20:41:29.210Z,68.29
2023-05-03T20:44:01.660Z,68.32
2023-05-03T20:46:32.153Z,68.35
2023-05-03T20:49:02.464Z,68.23
2023-05-03T20:51:35.934Z,68.32
2023-05-03T20:54:07.356Z,68.30
2023-05-03T20:56:37.945Z,68.31
2023-05-03T20:59:08.388Z,68.30
2023-05-03T21:01:43.028Z,68.16
2023-05-03T21:04:13.629Z,68.12
2023-05-03T21:06:45.444Z,68.13
2023-05-03T21:09:15.641Z,68.13
2023-05-03T21:11:45.866Z,68.09
2023-05-03T21:14:16.809Z,68.06
2023-05-03T21:16:47.803Z,68.02
2023-05-03T21:19:18.278Z,68.08
2023-05-03T21:21:48.728Z,68.29
2023-05-03T21:24:18.984Z,68.25
2023-05-03T21:26:49.348Z,68.22
2023-05-03T21:29:19.734Z,68.15
2023-05-03T21:31:50.045Z,68.14
2023-05-03T21:34:21.824Z,68.22
2023-05-03T21:36:52.896Z,68.21
2023-05-03T21:39:25.470Z,68.42
2023-05-03T21:41:55.702Z,68.46
2023-05-03T21:44:26.475Z,68.42
2023-05-03T21:46:56.949Z,68.46
2023-05-03T21:49:27.423Z,68.46
2023-05-03T21:51:57.745Z,68.42
2023-05-03T21:54:28.980Z,68.47
2023-05-03T21:56:58.908Z,68.51
2023-05-03T21:59:29.068Z,68.73
2023-05-03T22:01:59.685Z,68.60
2023-05-03T22:04:30.345Z,68.52
2023-05-03T22:07:00.460Z,68.66
2023-05-03T22:09:30.529Z,68.88
2023-05-03T22:12:05.928Z,68.73
2023-05-03T22:14:42.834Z,68.92
2023-05-03T22:17:13.156Z,68.66
2023-05-03T22:19:43.502Z,68.83
2023-05-03T22:22:14.002Z,68.81
2023-05-03T22:24:44.153Z,69.14
2023-05-03T22:27:14.530Z,69.23
2023-05-03T22:29:44.917Z,68.95
2023-05-03T22:32:15.455Z,68.91
2023-05-03T22:34:47.430Z,69.01
2023-05-03T22:37:17.842Z,69.24
2023-05-03T22:39:48.179Z,69.09
2023-05-03T22:42:18.872Z,69.20
2023-05-03T22:44:49.668Z,69.17
2023-05-03T22:47:20.141Z,69.23
2023-05-03T22:49:50.529Z,69.16
2023-05-03T22:52:21.100Z,69.46
2023-05-03T22:54:51.487Z,69.31
2023-05-03T22:57:21.726Z,69.38
2023-05-03T22:59:52.053Z,69.25
2023-05-03T23:02:22.481Z,69.48
2023-05-03T23:04:52.909Z,69.35
2023-05-03T23:07:23.400Z,69.39
2023-05-03T23:10:03.593Z,69.74
2023-05-03T23:12:34.747Z,69.58
2023-05-03T23:15:05.177Z,69.85
2023-05-03T23:17:36.360Z,69.77
2023-05-03T23:20:09.303Z,69.75
2023-05-03T23:22:41.777Z,69.70
2023-05-03T23:25:12.354Z,69.70
2023-05-03T23:27:42.635Z,69.94
2023-05-03T23:30:13.802Z,69.79
2023-05-03T23:32:44.487Z,70.01
2023-05-03T23:35:15.722Z,70.18
2023-05-03T23:37:47.112Z,70.33
2023-05-03T23:40:17.746Z,70.53
2023-05-03T23:42:49.171Z,70.69
2023-05-03T23:45:19.657Z,71.05
2023-05-03T23:47:50.232Z,70.71
2023-05-03T23:50:20.684Z,70.63
2023-05-03T23:52:51.029Z,70.83
2023-05-03T23:55:21.546Z,70.94
2023-05-03T23:57:52.102Z,70.82
